ADDS METAR Data INFO
IDs: Format: Raw Decoded Include TAF

Data at: 1549 UTC 24 Sep 2017

KOCH 241456Z AUTO 12006KT 10SM CLR 27/23 A2996 RMK AO2 SLP145 T02670233 53008
KOCH 241356Z AUTO 10005KT 8SM CLR 24/23 A2994 RMK AO2 SLP141 T02440228
KOCH 241256Z AUTO 00000KT 4SM BR CLR 21/20 A2994 RMK AO2 SLP140 T02060200
KOCH 241247Z AUTO 00000KT 4SM BR CLR 19/19 A2994 RMK AO2 TSNO
KOCH 241234Z AUTO 00000KT 2 1/2SM BR CLR 21/20 A2994 RMK AO2 VIS 2V3
KOCH 241220Z AUTO 10003KT 1 3/4SM BR CLR 20/19 A2994 RMK AO2
KOCH 241156Z AUTO 00000KT 4SM BR CLR 19/19 A2994 RMK AO2 RAB34E50 SLP137 P0000 60000 T01940189 10228 20194 51004
KOCH 241142Z AUTO 00000KT 4SM -RA BR CLR 21/20 A2993 RMK AO2 RAB34 P0000
KOCH 241135Z AUTO 09003KT 2 1/2SM -RA BR FEW002 20/20 A2993 RMK AO2 RAB34 P0000
KOCH 241118Z AUTO 00000KT 4SM BR FEW002 19/19 A2993 RMK AO2
KOCH 241114Z AUTO 00000KT 1 3/4SM BR FEW002 19/19 A2994 RMK AO2
KOCH 241107Z AUTO 00000KT 2SM BR FEW002 19/19 A2993 RMK AO2 VIS 1/2V5
KOCH 241056Z AUTO 00000KT 3SM BR CLR 20/20 A2993 RMK AO2 SLP135 T02000200
KOCH 241051Z AUTO 00000KT 2SM BR CLR 20/19 A2993 RMK AO2 VIS 1 1/4V4
KOCH 241018Z AUTO 00000KT 6SM BR CLR 21/20 A2992 RMK AO2
KOCH 241009Z AUTO 00000KT 2SM BR CLR 21/20 A2992 RMK AO2
KOCH 240956Z AUTO 00000KT 1 3/4SM BR CLR 21/21 A2992 RMK AO2 SLP133 T02060206
KOCH 240954Z AUTO 00000KT 1 3/4SM BR CLR 21/20 A2992 RMK AO2
KOCH 240940Z AUTO 00000KT 5SM BR CLR 20/20 A2992 RMK AO2
KOCH 240917Z AUTO 00000KT 2 1/2SM BR CLR 21/20 A2992 RMK AO2 VIS 1V5
KOCH 240856Z AUTO 00000KT 3SM BR CLR 21/20 A2992 RMK AO2 SLP132 T02110200 51004
KOCH 240756Z AUTO 00000KT 4SM BR CLR 21/21 A2992 RMK AO2 SLP133 T02110206
KOCH 240656Z AUTO 00000KT 8SM CLR 22/21 A2992 RMK AO2 SLP132 T02220211
KOCH 240556Z AUTO 00000KT 6SM BR CLR 22/21 A2991 RMK AO2 SLP130 T02170211 10283 20217 403280194 58001
KOCH 240456Z AUTO 00000KT 7SM CLR 22/22 A2992 RMK AO2 SLP133 T02220217
KOCH 240356Z AUTO 11003KT 10SM CLR 23/22 A2991 RMK AO2 SLP130 T02280217
KOCH 240256Z AUTO 00000KT 9SM CLR 23/22 A2992 RMK AO2 SLP131 T02330222 53008
KOCH 240156Z AUTO 09004KT 10SM CLR 24/22 A2991 RMK AO2 SLP128 T02390222
KOCH 240056Z AUTO 10004KT 10SM CLR 26/22 A2989 RMK AO2 SLP124 T02560222
KOCH 232356Z AUTO 10003KT 10SM BKN110 28/23 A2989 RMK AO2 SLP123 T02830228 10328 20283 56002
KOCH 232256Z AUTO 14004KT 10SM CLR 31/22 A2990 RMK AO2 SLP125 T03060217
KOCH 232056Z AUTO 10007KT 10SM FEW045 SCT110 31/21 A2990 RMK AO2 SLP124 T03110211 57022
KOCH 231956Z AUTO 13008KT 090V160 10SM CLR 32/21 A2992 RMK AO2 SLP132 T03170211
KOCH 231856Z AUTO VRB05KT 10SM FEW045 32/21 A2994 RMK AO2 SLP140 T03170211
KOCH 231756Z AUTO 12006KT 10SM FEW041 31/22 A2996 RMK AO2 SLP147 T03110217 10317 20194 58005
KOCH 231656Z AUTO 08003KT 10SM CLR 31/22 A2997 RMK AO2 SLP150 T03110222
KOCH 231556Z AUTO VRB04KT 10SM CLR 30/23 A2998 RMK AO2 SLP153 T03000233
KOCH 231456Z AUTO 30003KT 10SM CLR 27/24 A2998 RMK AO2 SLP152 T02720239 51008
KOCH 231356Z AUTO 00000KT 8SM CLR 24/22 A2997 RMK AO2 SLP149 T02390222
KOCH 231256Z AUTO 00000KT 5SM BR CLR 20/19 A2996 RMK AO2 SLP148 T02000194
KOCH 231243Z AUTO 00000KT 4SM BR CLR 20/19 A2996 RMK AO2
KOCH 231233Z AUTO 00000KT 2 1/2SM BR CLR 19/19 A2996 RMK AO2
KOCH 231156Z AUTO 00000KT 5SM BR CLR 20/19 A2995 RMK AO2 SLP143 T02000194 10222 20194 53003
KOCH 231056Z AUTO 00000KT 6SM BR CLR 19/19 A2994 RMK AO2 SLP140 T01940189
KOCH 230956Z AUTO 00000KT 4SM BR CLR 21/20 A2994 RMK AO2 SLP139 T02060200
KOCH 230856Z AUTO 00000KT 6SM BR CLR 21/20 A2994 RMK AO2 SLP139 T02060200 55001
KOCH 230756Z AUTO 00000KT 4SM BR CLR 21/21 A2994 RMK AO2 SLP138 T02110206
KOCH 230656Z AUTO 00000KT 6SM BR CLR 22/21 A2995 RMK AO2 SLP140 T02170211
KOCH 230556Z AUTO 00000KT 5SM BR CLR 22/21 A2995 RMK AO2 SLP140 T02170211 10289 20217 403170194 58001
KOCH 230456Z AUTO 00000KT 6SM BR CLR 22/22 A2995 RMK AO2 SLP143 T02220217
KOCH 230356Z AUTO 00000KT 9SM CLR 23/22 A2995 RMK AO2 SLP142 T02280222